sensor_id;sensor_type;location;lat;lon;timestamp;P1;durP1;ratioP1;P2;durP2;ratioP2
20067;SDS011;10194;50.824;7.134;2022-10-19T00:00:48;258.87;;;173.60;;
20067;SDS011;10194;50.824;7.134;2022-10-19T00:03:14;263.10;;;173.70;;
20067;SDS011;10194;50.824;7.134;2022-10-19T00:05:40;264.37;;;177.37;;
20067;SDS011;10194;50.824;7.134;2022-10-19T00:08:06;305.80;;;174.13;;
20067;SDS011;10194;50.824;7.134;2022-10-19T00:10:33;266.23;;;174.00;;
20067;SDS011;10194;50.824;7.134;2022-10-19T00:12:59;330.83;;;180.93;;
20067;SDS011;10194;50.824;7.134;2022-10-19T00:15:25;281.17;;;187.37;;
20067;SDS011;10194;50.824;7.134;2022-10-19T00:17:51;297.77;;;183.17;;
20067;SDS011;10194;50.824;7.134;2022-10-19T00:20:16;262.47;;;176.80;;
20067;SDS011;10194;50.824;7.134;2022-10-19T00:22:42;269.93;;;184.07;;
20067;SDS011;10194;50.824;7.134;2022-10-19T00:25:08;276.20;;;185.63;;
20067;SDS011;10194;50.824;7.134;2022-10-19T00:27:34;263.67;;;179.73;;
20067;SDS011;10194;50.824;7.134;2022-10-19T00:30:01;258.57;;;177.00;;
20067;SDS011;10194;50.824;7.134;2022-10-19T00:32:27;259.73;;;177.03;;
20067;SDS011;10194;50.824;7.134;2022-10-19T00:34:53;266.37;;;172.77;;
20067;SDS011;10194;50.824;7.134;2022-10-19T00:37:18;265.20;;;177.60;;
20067;SDS011;10194;50.824;7.134;2022-10-19T00:39:44;252.83;;;178.47;;
20067;SDS011;10194;50.824;7.134;2022-10-19T00:42:10;283.80;;;182.53;;
20067;SDS011;10194;50.824;7.134;2022-10-19T00:47:03;256.73;;;181.70;;
20067;SDS011;10194;50.824;7.134;2022-10-19T00:49:35;256.33;;;176.10;;
20067;SDS011;10194;50.824;7.134;2022-10-19T00:52:08;247.73;;;174.37;;
20067;SDS011;10194;50.824;7.134;2022-10-19T00:54:37;247.93;;;177.67;;
20067;SDS011;10194;50.824;7.134;2022-10-19T00:57:07;251.87;;;168.47;;
20067;SDS011;10194;50.824;7.134;2022-10-19T00:59:33;254.97;;;177.57;;
20067;SDS011;10194;50.824;7.134;2022-10-19T01:02:02;254.43;;;172.73;;
20067;SDS011;10194;50.824;7.134;2022-10-19T01:04:29;255.60;;;173.57;;
20067;SDS011;10194;50.824;7.134;2022-10-19T01:06:59;253.63;;;176.20;;
20067;SDS011;10194;50.824;7.134;2022-10-19T01:09:28;248.67;;;172.97;;
20067;SDS011;10194;50.824;7.134;2022-10-19T01:21:00;248.93;;;184.53;;
20067;SDS011;10194;50.824;7.134;2022-10-19T01:29:21;247.60;;;177.97;;
20067;SDS011;10194;50.824;7.134;2022-10-19T01:33:01;259.27;;;192.30;;
20067;SDS011;10194;50.824;7.134;2022-10-19T01:40:55;257.27;;;190.67;;
20067;SDS011;10194;50.824;7.134;2022-10-19T01:46:50;264.57;;;203.13;;
20067;SDS011;10194;50.824;7.134;2022-10-19T01:52:07;263.63;;;224.73;;
20067;SDS011;10194;50.824;7.134;2022-10-19T01:54:45;269.07;;;233.47;;
20067;SDS011;10194;50.824;7.134;2022-10-19T01:57:20;288.90;;;258.23;;
20067;SDS011;10194;50.824;7.134;2022-10-19T01:59:52;299.83;;;268.87;;
20067;SDS011;10194;50.824;7.134;2022-10-19T02:02:20;293.93;;;263.73;;
20067;SDS011;10194;50.824;7.134;2022-10-19T02:04:50;292.27;;;261.47;;
20067;SDS011;10194;50.824;7.134;2022-10-19T02:07:20;280.90;;;250.47;;
20067;SDS011;10194;50.824;7.134;2022-10-19T02:09:47;282.87;;;251.93;;
20067;SDS011;10194;50.824;7.134;2022-10-19T02:12:13;266.80;;;226.07;;
20067;SDS011;10194;50.824;7.134;2022-10-19T02:14:43;269.07;;;226.37;;
20067;SDS011;10194;50.824;7.134;2022-10-19T02:17:16;269.67;;;223.20;;
20067;SDS011;10194;50.824;7.134;2022-10-19T02:19:46;263.80;;;227.37;;
20067;SDS011;10194;50.824;7.134;2022-10-19T02:22:12;267.93;;;224.10;;
20067;SDS011;10194;50.824;7.134;2022-10-19T02:24:38;267.90;;;225.53;;
20067;SDS011;10194;50.824;7.134;2022-10-19T02:27:04;263.90;;;229.63;;
20067;SDS011;10194;50.824;7.134;2022-10-19T02:29:32;269.23;;;238.93;;
20067;SDS011;10194;50.824;7.134;2022-10-19T02:31:59;262.90;;;226.30;;
20067;SDS011;10194;50.824;7.134;2022-10-19T02:34:25;258.70;;;224.03;;
20067;SDS011;10194;50.824;7.134;2022-10-19T02:36:52;263.93;;;229.70;;
20067;SDS011;10194;50.824;7.134;2022-10-19T02:39:18;267.00;;;230.23;;
20067;SDS011;10194;50.824;7.134;2022-10-19T02:42:04;260.03;;;223.27;;
20067;SDS011;10194;50.824;7.134;2022-10-19T02:44:56;263.63;;;232.70;;
20067;SDS011;10194;50.824;7.134;2022-10-19T02:50:27;284.83;;;253.93;;
20067;SDS011;10194;50.824;7.134;2022-10-19T02:52:53;280.77;;;250.10;;
20067;SDS011;10194;50.824;7.134;2022-10-19T02:55:19;274.33;;;244.33;;
20067;SDS011;10194;50.824;7.134;2022-10-19T02:57:44;281.87;;;251.93;;
20067;SDS011;10194;50.824;7.134;2022-10-19T03:00:10;277.87;;;247.83;;
20067;SDS011;10194;50.824;7.134;2022-10-19T03:02:36;277.47;;;245.43;;
20067;SDS011;10194;50.824;7.134;2022-10-19T03:05:02;273.10;;;240.53;;
20067;SDS011;10194;50.824;7.134;2022-10-19T03:07:28;271.00;;;235.30;;
20067;SDS011;10194;50.824;7.134;2022-10-19T03:09:54;273.07;;;229.63;;
20067;SDS011;10194;50.824;7.134;2022-10-19T03:12:20;284.53;;;230.57;;
20067;SDS011;10194;50.824;7.134;2022-10-19T03:14:45;278.27;;;227.37;;
20067;SDS011;10194;50.824;7.134;2022-10-19T03:17:11;294.40;;;228.97;;
20067;SDS011;10194;50.824;7.134;2022-10-19T03:19:37;353.57;;;235.97;;
20067;SDS011;10194;50.824;7.134;2022-10-19T03:22:03;318.93;;;228.93;;
20067;SDS011;10194;50.824;7.134;2022-10-19T03:24:29;289.43;;;219.43;;
20067;SDS011;10194;50.824;7.134;2022-10-19T03:26:55;300.57;;;233.73;;
20067;SDS011;10194;50.824;7.134;2022-10-19T03:29:21;290.87;;;236.60;;
20067;SDS011;10194;50.824;7.134;2022-10-19T03:31:47;313.93;;;248.27;;
20067;SDS011;10194;50.824;7.134;2022-10-19T03:34:13;290.40;;;256.47;;
20067;SDS011;10194;50.824;7.134;2022-10-19T03:36:39;289.60;;;250.03;;
20067;SDS011;10194;50.824;7.134;2022-10-19T03:39:06;280.13;;;247.03;;
20067;SDS011;10194;50.824;7.134;2022-10-19T03:41:36;300.33;;;247.80;;
20067;SDS011;10194;50.824;7.134;2022-10-19T03:44:03;297.33;;;264.40;;
20067;SDS011;10194;50.824;7.134;2022-10-19T03:46:30;312.53;;;276.23;;
20067;SDS011;10194;50.824;7.134;2022-10-19T03:48:56;287.17;;;254.60;;
20067;SDS011;10194;50.824;7.134;2022-10-19T03:51:23;324.10;;;269.40;;
20067;SDS011;10194;50.824;7.134;2022-10-19T03:53:52;334.73;;;286.03;;
20067;SDS011;10194;50.824;7.134;2022-10-19T03:56:21;348.50;;;302.40;;
20067;SDS011;10194;50.824;7.134;2022-10-19T03:58:49;368.37;;;314.10;;
20067;SDS011;10194;50.824;7.134;2022-10-19T04:01:22;353.17;;;315.37;;
20067;SDS011;10194;50.824;7.134;2022-10-19T04:03:56;355.07;;;318.13;;
20067;SDS011;10194;50.824;7.134;2022-10-19T04:06:30;354.50;;;318.17;;
20067;SDS011;10194;50.824;7.134;2022-10-19T04:08:58;350.50;;;314.67;;
20067;SDS011;10194;50.824;7.134;2022-10-19T04:11:26;349.80;;;313.10;;
20067;SDS011;10194;50.824;7.134;2022-10-19T04:13:54;368.43;;;316.70;;
20067;SDS011;10194;50.824;7.134;2022-10-19T04:16:22;356.77;;;319.80;;
20067;SDS011;10194;50.824;7.134;2022-10-19T04:18:49;352.40;;;316.37;;
20067;SDS011;10194;50.824;7.134;2022-10-19T04:21:19;372.40;;;315.07;;
20067;SDS011;10194;50.824;7.134;2022-10-19T04:24:01;346.70;;;310.53;;
20067;SDS011;10194;50.824;7.134;2022-10-19T04:26:43;344.00;;;310.57;;
20067;SDS011;10194;50.824;7.134;2022-10-19T04:29:11;331.60;;;299.17;;
20067;SDS011;10194;50.824;7.134;2022-10-19T04:31:39;331.77;;;295.23;;
20067;SDS011;10194;50.824;7.134;2022-10-19T04:34:05;338.50;;;301.57;;
20067;SDS011;10194;50.824;7.134;2022-10-19T04:36:32;354.60;;;316.50;;
20067;SDS011;10194;50.824;7.134;2022-10-19T04:38:58;348.33;;;313.80;;
20067;SDS011;10194;50.824;7.134;2022-10-19T04:41:24;345.93;;;310.67;;
20067;SDS011;10194;50.824;7.134;2022-10-19T04:43:53;332.60;;;301.43;;
20067;SDS011;10194;50.824;7.134;2022-10-19T04:46:22;334.13;;;301.60;;
20067;SDS011;10194;50.824;7.134;2022-10-19T04:48:48;337.57;;;304.07;;
20067;SDS011;10194;50.824;7.134;2022-10-19T04:51:14;342.93;;;309.63;;
20067;SDS011;10194;50.824;7.134;2022-10-19T04:53:41;345.70;;;312.57;;
20067;SDS011;10194;50.824;7.134;2022-10-19T04:56:15;350.87;;;313.37;;
20067;SDS011;10194;50.824;7.134;2022-10-19T04:58:44;361.33;;;317.73;;
20067;SDS011;10194;50.824;7.134;2022-10-19T05:01:14;358.93;;;321.43;;
20067;SDS011;10194;50.824;7.134;2022-10-19T05:03:43;359.23;;;323.23;;
20067;SDS011;10194;50.824;7.134;2022-10-19T05:06:10;402.00;;;322.43;;
20067;SDS011;10194;50.824;7.134;2022-10-19T05:08:37;384.47;;;323.00;;
20067;SDS011;10194;50.824;7.134;2022-10-19T05:11:04;374.60;;;324.40;;
20067;SDS011;10194;50.824;7.134;2022-10-19T05:13:33;364.30;;;326.67;;
20067;SDS011;10194;50.824;7.134;2022-10-19T05:16:00;443.47;;;325.80;;
20067;SDS011;10194;50.824;7.134;2022-10-19T05:18:28;390.23;;;320.87;;
20067;SDS011;10194;50.824;7.134;2022-10-19T05:23:32;356.77;;;323.97;;
20067;SDS011;10194;50.824;7.134;2022-10-19T05:26:02;350.90;;;316.10;;
20067;SDS011;10194;50.824;7.134;2022-10-19T05:28:31;344.23;;;309.97;;
20067;SDS011;10194;50.824;7.134;2022-10-19T05:31:07;343.63;;;310.50;;
20067;SDS011;10194;50.824;7.134;2022-10-19T05:33:40;337.70;;;304.10;;
20067;SDS011;10194;50.824;7.134;2022-10-19T05:36:10;331.27;;;299.70;;
20067;SDS011;10194;50.824;7.134;2022-10-19T05:38:54;330.70;;;299.43;;
20067;SDS011;10194;50.824;7.134;2022-10-19T05:41:21;342.20;;;308.10;;
20067;SDS011;10194;50.824;7.134;2022-10-19T05:43:53;342.43;;;310.10;;
20067;SDS011;10194;50.824;7.134;2022-10-19T05:46:21;341.47;;;308.93;;
20067;SDS011;10194;50.824;7.134;2022-10-19T05:48:48;351.33;;;318.57;;
20067;SDS011;10194;50.824;7.134;2022-10-19T05:51:15;340.93;;;308.33;;
20067;SDS011;10194;50.824;7.134;2022-10-19T05:53:46;347.37;;;314.13;;
20067;SDS011;10194;50.824;7.134;2022-10-19T05:56:16;349.73;;;313.73;;
20067;SDS011;10194;50.824;7.134;2022-10-19T05:58:47;353.77;;;319.93;;
20067;SDS011;10194;50.824;7.134;2022-10-19T06:01:14;362.17;;;327.33;;
20067;SDS011;10194;50.824;7.134;2022-10-19T06:03:43;362.77;;;326.87;;
20067;SDS011;10194;50.824;7.134;2022-10-19T06:06:09;365.57;;;330.10;;
20067;SDS011;10194;50.824;7.134;2022-10-19T06:08:36;363.70;;;329.20;;
20067;SDS011;10194;50.824;7.134;2022-10-19T06:11:13;365.47;;;330.33;;
20067;SDS011;10194;50.824;7.134;2022-10-19T06:13:42;371.57;;;335.47;;
20067;SDS011;10194;50.824;7.134;2022-10-19T06:16:11;361.23;;;326.60;;
20067;SDS011;10194;50.824;7.134;2022-10-19T06:18:39;366.70;;;329.90;;
20067;SDS011;10194;50.824;7.134;2022-10-19T06:21:07;362.70;;;328.40;;
20067;SDS011;10194;50.824;7.134;2022-10-19T06:23:39;364.73;;;329.97;;
20067;SDS011;10194;50.824;7.134;2022-10-19T06:26:07;363.57;;;328.63;;
20067;SDS011;10194;50.824;7.134;2022-10-19T06:28:37;367.70;;;332.87;;
20067;SDS011;10194;50.824;7.134;2022-10-19T06:31:04;364.50;;;329.60;;
20067;SDS011;10194;50.824;7.134;2022-10-19T06:33:31;363.00;;;328.60;;
20067;SDS011;10194;50.824;7.134;2022-10-19T06:36:13;366.07;;;331.40;;
20067;SDS011;10194;50.824;7.134;2022-10-19T06:38:45;371.23;;;334.07;;
20067;SDS011;10194;50.824;7.134;2022-10-19T06:41:11;367.10;;;332.37;;
20067;SDS011;10194;50.824;7.134;2022-10-19T06:43:37;371.93;;;337.30;;
20067;SDS011;10194;50.824;7.134;2022-10-19T06:46:05;368.80;;;334.30;;
20067;SDS011;10194;50.824;7.134;2022-10-19T06:48:32;364.97;;;329.33;;
20067;SDS011;10194;50.824;7.134;2022-10-19T06:50:59;364.87;;;328.50;;
20067;SDS011;10194;50.824;7.134;2022-10-19T06:53:29;370.43;;;334.67;;
20067;SDS011;10194;50.824;7.134;2022-10-19T06:55:58;370.23;;;336.60;;
20067;SDS011;10194;50.824;7.134;2022-10-19T06:58:26;372.13;;;337.17;;
20067;SDS011;10194;50.824;7.134;2022-10-19T07:00:56;371.73;;;335.27;;
20067;SDS011;10194;50.824;7.134;2022-10-19T07:03:24;376.27;;;340.53;;
20067;SDS011;10194;50.824;7.134;2022-10-19T07:05:54;370.80;;;336.10;;
20067;SDS011;10194;50.824;7.134;2022-10-19T07:08:25;382.53;;;344.40;;
20067;SDS011;10194;50.824;7.134;2022-10-19T07:10:53;379.43;;;341.63;;
20067;SDS011;10194;50.824;7.134;2022-10-19T07:13:22;380.73;;;345.17;;
20067;SDS011;10194;50.824;7.134;2022-10-19T07:15:49;377.37;;;342.07;;
20067;SDS011;10194;50.824;7.134;2022-10-19T07:18:23;375.57;;;341.00;;
20067;SDS011;10194;50.824;7.134;2022-10-19T07:20:57;377.00;;;342.80;;
20067;SDS011;10194;50.824;7.134;2022-10-19T07:23:26;372.63;;;338.83;;
20067;SDS011;10194;50.824;7.134;2022-10-19T07:25:54;362.27;;;329.30;;
20067;SDS011;10194;50.824;7.134;2022-10-19T07:28:25;356.83;;;324.47;;
20067;SDS011;10194;50.824;7.134;2022-10-19T07:30:52;358.50;;;325.23;;
20067;SDS011;10194;50.824;7.134;2022-10-19T07:33:18;363.27;;;329.43;;
20067;SDS011;10194;50.824;7.134;2022-10-19T07:35:44;364.50;;;330.33;;
20067;SDS011;10194;50.824;7.134;2022-10-19T07:38:10;357.70;;;323.27;;
20067;SDS011;10194;50.824;7.134;2022-10-19T07:40:36;356.67;;;322.80;;
20067;SDS011;10194;50.824;7.134;2022-10-19T07:43:02;346.37;;;313.07;;
20067;SDS011;10194;50.824;7.134;2022-10-19T07:45:28;331.80;;;298.67;;
20067;SDS011;10194;50.824;7.134;2022-10-19T07:47:54;306.43;;;274.60;;
20067;SDS011;10194;50.824;7.134;2022-10-19T07:50:20;281.23;;;245.93;;
20067;SDS011;10194;50.824;7.134;2022-10-19T07:52:50;281.93;;;249.33;;
20067;SDS011;10194;50.824;7.134;2022-10-19T07:55:16;306.97;;;275.73;;
20067;SDS011;10194;50.824;7.134;2022-10-19T07:57:45;322.60;;;291.10;;
20067;SDS011;10194;50.824;7.134;2022-10-19T08:00:12;330.33;;;298.03;;
20067;SDS011;10194;50.824;7.134;2022-10-19T08:02:42;312.07;;;280.27;;
20067;SDS011;10194;50.824;7.134;2022-10-19T08:05:08;310.87;;;280.13;;
20067;SDS011;10194;50.824;7.134;2022-10-19T08:07:35;330.20;;;298.17;;
20067;SDS011;10194;50.824;7.134;2022-10-19T08:10:00;343.00;;;310.37;;
20067;SDS011;10194;50.824;7.134;2022-10-19T08:12:26;345.33;;;312.90;;
20067;SDS011;10194;50.824;7.134;2022-10-19T08:14:52;341.70;;;309.63;;
20067;SDS011;10194;50.824;7.134;2022-10-19T08:17:18;351.13;;;318.27;;
20067;SDS011;10194;50.824;7.134;2022-10-19T08:19:45;357.47;;;324.63;;
20067;SDS011;10194;50.824;7.134;2022-10-19T08:22:11;350.43;;;318.40;;
20067;SDS011;10194;50.824;7.134;2022-10-19T08:24:36;349.63;;;317.47;;
20067;SDS011;10194;50.824;7.134;2022-10-19T08:27:02;347.60;;;315.23;;
20067;SDS011;10194;50.824;7.134;2022-10-19T08:29:28;349.50;;;317.00;;
20067;SDS011;10194;50.824;7.134;2022-10-19T08:31:54;355.07;;;322.67;;
20067;SDS011;10194;50.824;7.134;2022-10-19T08:34:20;347.73;;;315.63;;
20067;SDS011;10194;50.824;7.134;2022-10-19T08:36:46;328.10;;;296.53;;
20067;SDS011;10194;50.824;7.134;2022-10-19T08:39:12;336.47;;;304.27;;
20067;SDS011;10194;50.824;7.134;2022-10-19T08:42:01;327.17;;;295.23;;
20067;SDS011;10194;50.824;7.134;2022-10-19T08:47:50;299.33;;;269.13;;
20067;SDS011;10194;50.824;7.134;2022-10-19T08:50:41;278.03;;;248.13;;
20067;SDS011;10194;50.824;7.134;2022-10-19T08:53:21;282.20;;;251.53;;
20067;SDS011;10194;50.824;7.134;2022-10-19T08:56:33;292.87;;;261.80;;
20067;SDS011;10194;50.824;7.134;2022-10-19T08:59:11;283.27;;;252.90;;
20067;SDS011;10194;50.824;7.134;2022-10-19T09:01:52;275.43;;;244.30;;
20067;SDS011;10194;50.824;7.134;2022-10-19T09:04:34;268.73;;;229.77;;
20067;SDS011;10194;50.824;7.134;2022-10-19T09:09:34;261.57;;;225.57;;
20067;SDS011;10194;50.824;7.134;2022-10-19T09:12:08;266.40;;;235.93;;
20067;SDS011;10194;50.824;7.134;2022-10-19T09:14:46;272.47;;;239.77;;
20067;SDS011;10194;50.824;7.134;2022-10-19T09:17:30;262.83;;;229.17;;
20067;SDS011;10194;50.824;7.134;2022-10-19T09:19:57;269.57;;;222.57;;
20067;SDS011;10194;50.824;7.134;2022-10-19T09:22:38;271.90;;;233.07;;
20067;SDS011;10194;50.824;7.134;2022-10-19T09:25:17;268.03;;;220.27;;
20067;SDS011;10194;50.824;7.134;2022-10-19T09:27:47;259.63;;;209.37;;
20067;SDS011;10194;50.824;7.134;2022-10-19T09:30:24;264.57;;;209.20;;
20067;SDS011;10194;50.824;7.134;2022-10-19T09:32:54;264.80;;;197.47;;
20067;SDS011;10194;50.824;7.134;2022-10-19T09:37:54;260.70;;;196.63;;
20067;SDS011;10194;50.824;7.134;2022-10-19T09:40:22;255.17;;;188.17;;
20067;SDS011;10194;50.824;7.134;2022-10-19T09:42:51;261.53;;;182.83;;
20067;SDS011;10194;50.824;7.134;2022-10-19T09:51:12;251.27;;;171.40;;
20067;SDS011;10194;50.824;7.134;2022-10-19T09:53:44;254.93;;;175.90;;
20067;SDS011;10194;50.824;7.134;2022-10-19T09:56:23;250.10;;;179.93;;
20067;SDS011;10194;50.824;7.134;2022-10-19T09:58:51;254.60;;;182.43;;
20067;SDS011;10194;50.824;7.134;2022-10-19T10:01:37;256.17;;;178.23;;
20067;SDS011;10194;50.824;7.134;2022-10-19T10:04:05;253.87;;;177.10;;
20067;SDS011;10194;50.824;7.134;2022-10-19T10:06:30;252.83;;;175.23;;
20067;SDS011;10194;50.824;7.134;2022-10-19T10:08:58;253.30;;;189.23;;
20067;SDS011;10194;50.824;7.134;2022-10-19T10:11:26;260.23;;;200.97;;
20067;SDS011;10194;50.824;7.134;2022-10-19T10:13:55;256.23;;;193.57;;
20067;SDS011;10194;50.824;7.134;2022-10-19T10:16:27;260.33;;;199.83;;
20067;SDS011;10194;50.824;7.134;2022-10-19T10:19:28;255.87;;;189.57;;
20067;SDS011;10194;50.824;7.134;2022-10-19T10:21:53;250.20;;;172.67;;
20067;SDS011;10194;50.824;7.134;2022-10-19T10:24:21;254.33;;;176.80;;
20067;SDS011;10194;50.824;7.134;2022-10-19T10:26:59;253.60;;;182.17;;
20067;SDS011;10194;50.824;7.134;2022-10-19T10:29:31;261.63;;;201.67;;
20067;SDS011;10194;50.824;7.134;2022-10-19T10:32:07;268.93;;;229.57;;
20067;SDS011;10194;50.824;7.134;2022-10-19T10:35:03;278.70;;;248.60;;
20067;SDS011;10194;50.824;7.134;2022-10-19T10:37:42;267.87;;;235.30;;
20067;SDS011;10194;50.824;7.134;2022-10-19T10:40:25;269.93;;;232.23;;
20067;SDS011;10194;50.824;7.134;2022-10-19T10:42:55;274.37;;;233.73;;
20067;SDS011;10194;50.824;7.134;2022-10-19T10:45:29;273.27;;;236.13;;
20067;SDS011;10194;50.824;7.134;2022-10-19T10:48:13;274.77;;;241.20;;
20067;SDS011;10194;50.824;7.134;2022-10-19T10:50:58;277.43;;;246.00;;
20067;SDS011;10194;50.824;7.134;2022-10-19T10:56:20;287.83;;;257.50;;
20067;SDS011;10194;50.824;7.134;2022-10-19T11:01:29;313.70;;;282.27;;
20067;SDS011;10194;50.824;7.134;2022-10-19T11:04:07;316.27;;;285.47;;
20067;SDS011;10194;50.824;7.134;2022-10-19T11:06:50;311.67;;;281.07;;
20067;SDS011;10194;50.824;7.134;2022-10-19T11:09:30;308.97;;;279.13;;
20067;SDS011;10194;50.824;7.134;2022-10-19T11:12:14;309.67;;;279.07;;
20067;SDS011;10194;50.824;7.134;2022-10-19T11:14:55;298.80;;;269.13;;
20067;SDS011;10194;50.824;7.134;2022-10-19T11:17:55;303.07;;;273.03;;
20067;SDS011;10194;50.824;7.134;2022-10-19T11:20:31;309.03;;;278.23;;
20067;SDS011;10194;50.824;7.134;2022-10-19T11:23:35;303.13;;;272.50;;
20067;SDS011;10194;50.824;7.134;2022-10-19T11:31:52;307.10;;;276.73;;
20067;SDS011;10194;50.824;7.134;2022-10-19T11:43:08;302.20;;;271.40;;
20067;SDS011;10194;50.824;7.134;2022-10-19T11:45:48;293.70;;;264.60;;
20067;SDS011;10194;50.824;7.134;2022-10-19T11:51:31;299.13;;;269.60;;
20067;SDS011;10194;50.824;7.134;2022-10-19T11:59:47;275.40;;;246.87;;
20067;SDS011;10194;50.824;7.134;2022-10-19T12:08:27;229.63;;;197.87;;
20067;SDS011;10194;50.824;7.134;2022-10-19T12:13:51;227.47;;;186.07;;
20067;SDS011;10194;50.824;7.134;2022-10-19T12:16:37;224.03;;;189.97;;
20067;SDS011;10194;50.824;7.134;2022-10-19T12:19:15;226.57;;;187.97;;
20067;SDS011;10194;50.824;7.134;2022-10-19T12:21:47;226.40;;;192.07;;
20067;SDS011;10194;50.824;7.134;2022-10-19T12:24:24;227.43;;;184.97;;
20067;SDS011;10194;50.824;7.134;2022-10-19T12:26:52;218.70;;;172.67;;
20067;SDS011;10194;50.824;7.134;2022-10-19T12:29:23;217.60;;;172.90;;
20067;SDS011;10194;50.824;7.134;2022-10-19T12:31:56;217.27;;;172.87;;
20067;SDS011;10194;50.824;7.134;2022-10-19T12:37:39;201.17;;;134.90;;
20067;SDS011;10194;50.824;7.134;2022-10-19T12:43:00;223.90;;;160.27;;
20067;SDS011;10194;50.824;7.134;2022-10-19T12:45:40;212.10;;;160.53;;
20067;SDS011;10194;50.824;7.134;2022-10-19T12:48:16;205.87;;;145.17;;
20067;SDS011;10194;50.824;7.134;2022-10-19T12:53:22;205.37;;;148.73;;
20067;SDS011;10194;50.824;7.134;2022-10-19T12:56:01;203.70;;;145.37;;
20067;SDS011;10194;50.824;7.134;2022-10-19T12:58:54;197.73;;;135.07;;
20067;SDS011;10194;50.824;7.134;2022-10-19T13:01:25;202.40;;;138.60;;
20067;SDS011;10194;50.824;7.134;2022-10-19T13:06:46;189.83;;;122.07;;
20067;SDS011;10194;50.824;7.134;2022-10-19T13:09:31;185.37;;;115.73;;
20067;SDS011;10194;50.824;7.134;2022-10-19T13:22:49;186.83;;;112.23;;
20067;SDS011;10194;50.824;7.134;2022-10-19T13:25:35;187.37;;;111.40;;
20067;SDS011;10194;50.824;7.134;2022-10-19T13:33:45;188.33;;;109.40;;
20067;SDS011;10194;50.824;7.134;2022-10-19T13:38:33;181.40;;;103.67;;
20067;SDS011;10194;50.824;7.134;2022-10-19T13:43:39;177.23;;;98.97;;
20067;SDS011;10194;50.824;7.134;2022-10-19T13:51:42;177.77;;;97.17;;
20067;SDS011;10194;50.824;7.134;2022-10-19T14:00:22;184.53;;;104.30;;
20067;SDS011;10194;50.824;7.134;2022-10-19T14:08:29;185.40;;;100.87;;
20067;SDS011;10194;50.824;7.134;2022-10-19T14:12:07;185.30;;;106.70;;
20067;SDS011;10194;50.824;7.134;2022-10-19T14:14:52;187.80;;;123.87;;
20067;SDS011;10194;50.824;7.134;2022-10-19T14:17:19;182.77;;;117.20;;
20067;SDS011;10194;50.824;7.134;2022-10-19T14:19:57;187.10;;;118.33;;
20067;SDS011;10194;50.824;7.134;2022-10-19T14:24:51;183.43;;;114.40;;
20067;SDS011;10194;50.824;7.134;2022-10-19T14:27:59;183.67;;;119.73;;
20067;SDS011;10194;50.824;7.134;2022-10-19T14:30:30;184.77;;;117.73;;
20067;SDS011;10194;50.824;7.134;2022-10-19T14:32:59;188.20;;;121.37;;
20067;SDS011;10194;50.824;7.134;2022-10-19T14:35:38;182.37;;;115.30;;
20067;SDS011;10194;50.824;7.134;2022-10-19T14:38:13;180.87;;;109.63;;
20067;SDS011;10194;50.824;7.134;2022-10-19T14:40:44;183.13;;;113.60;;
20067;SDS011;10194;50.824;7.134;2022-10-19T14:43:18;183.67;;;118.07;;
20067;SDS011;10194;50.824;7.134;2022-10-19T14:48:32;184.37;;;119.30;;
20067;SDS011;10194;50.824;7.134;2022-10-19T14:51:27;187.17;;;116.07;;
20067;SDS011;10194;50.824;7.134;2022-10-19T14:56:51;185.13;;;117.00;;
20067;SDS011;10194;50.824;7.134;2022-10-19T14:59:29;184.40;;;119.73;;
20067;SDS011;10194;50.824;7.134;2022-10-19T15:02:11;190.77;;;119.00;;
20067;SDS011;10194;50.824;7.134;2022-10-19T15:04:47;183.40;;;115.23;;
20067;SDS011;10194;50.824;7.134;2022-10-19T15:07:15;191.03;;;124.43;;
20067;SDS011;10194;50.824;7.134;2022-10-19T15:09:47;187.33;;;122.40;;
20067;SDS011;10194;50.824;7.134;2022-10-19T15:12:20;199.40;;;139.73;;
20067;SDS011;10194;50.824;7.134;2022-10-19T15:14:52;187.17;;;116.57;;
20067;SDS011;10194;50.824;7.134;2022-10-19T15:17:22;186.17;;;114.20;;
20067;SDS011;10194;50.824;7.134;2022-10-19T15:19:55;184.50;;;116.63;;
20067;SDS011;10194;50.824;7.134;2022-10-19T15:27:47;187.37;;;125.13;;
20067;SDS011;10194;50.824;7.134;2022-10-19T15:32:44;194.97;;;123.93;;
20067;SDS011;10194;50.824;7.134;2022-10-19T15:35:22;188.43;;;122.77;;
20067;SDS011;10194;50.824;7.134;2022-10-19T15:38:03;189.57;;;125.93;;
20067;SDS011;10194;50.824;7.134;2022-10-19T15:40:57;189.13;;;124.70;;
20067;SDS011;10194;50.824;7.134;2022-10-19T15:53:56;191.87;;;126.73;;
20067;SDS011;10194;50.824;7.134;2022-10-19T15:56:34;191.60;;;127.37;;
20067;SDS011;10194;50.824;7.134;2022-10-19T15:59:05;187.83;;;126.80;;
20067;SDS011;10194;50.824;7.134;2022-10-19T16:01:46;187.73;;;123.57;;
20067;SDS011;10194;50.824;7.134;2022-10-19T16:04:13;185.73;;;118.63;;
20067;SDS011;10194;50.824;7.134;2022-10-19T16:06:40;182.27;;;115.57;;
20067;SDS011;10194;50.824;7.134;2022-10-19T16:09:12;178.90;;;111.63;;
20067;SDS011;10194;50.824;7.134;2022-10-19T16:11:44;186.43;;;117.97;;
20067;SDS011;10194;50.824;7.134;2022-10-19T16:14:11;187.43;;;123.27;;
20067;SDS011;10194;50.824;7.134;2022-10-19T16:16:36;189.87;;;122.73;;
20067;SDS011;10194;50.824;7.134;2022-10-19T16:19:02;188.23;;;125.77;;
20067;SDS011;10194;50.824;7.134;2022-10-19T16:21:30;193.20;;;130.20;;
20067;SDS011;10194;50.824;7.134;2022-10-19T16:23:58;191.77;;;131.47;;
20067;SDS011;10194;50.824;7.134;2022-10-19T16:26:24;199.23;;;139.17;;
20067;SDS011;10194;50.824;7.134;2022-10-19T16:28:51;190.17;;;129.47;;
20067;SDS011;10194;50.824;7.134;2022-10-19T16:31:19;193.77;;;136.87;;
20067;SDS011;10194;50.824;7.134;2022-10-19T16:33:45;192.13;;;132.50;;
20067;SDS011;10194;50.824;7.134;2022-10-19T16:36:10;195.80;;;136.00;;
20067;SDS011;10194;50.824;7.134;2022-10-19T16:38:37;201.17;;;146.37;;
20067;SDS011;10194;50.824;7.134;2022-10-19T16:41:04;205.53;;;154.97;;
20067;SDS011;10194;50.824;7.134;2022-10-19T16:43:33;203.17;;;153.50;;
20067;SDS011;10194;50.824;7.134;2022-10-19T16:45:59;215.93;;;175.93;;
20067;SDS011;10194;50.824;7.134;2022-10-19T16:48:26;223.33;;;186.73;;
20067;SDS011;10194;50.824;7.134;2022-10-19T16:53:29;231.93;;;204.13;;
20067;SDS011;10194;50.824;7.134;2022-10-19T16:56:00;232.77;;;200.03;;
20067;SDS011;10194;50.824;7.134;2022-10-19T16:58:30;242.10;;;215.50;;
20067;SDS011;10194;50.824;7.134;2022-10-19T17:00:56;245.37;;;218.53;;
20067;SDS011;10194;50.824;7.134;2022-10-19T17:03:26;246.40;;;219.87;;
20067;SDS011;10194;50.824;7.134;2022-10-19T17:05:52;240.17;;;213.10;;